sensor_id;sensor_type;location;lat;lon;timestamp;pressure;altitude;pressure_sealevel;temperature;humidity
35694;BME280;21812;55.536;37.664;2023-08-24T00:02:13;99244.97;;;16.74;76.00
35694;BME280;21812;55.536;37.664;2023-08-24T00:04:38;99238.81;;;16.91;78.99
35694;BME280;21812;55.536;37.664;2023-08-24T00:07:04;99241.66;;;16.84;78.38
35694;BME280;21812;55.536;37.664;2023-08-24T00:09:30;99248.28;;;16.65;77.33
35694;BME280;21812;55.536;37.664;2023-08-24T00:11:56;99253.00;;;16.57;79.58
35694;BME280;21812;55.536;37.664;2023-08-24T00:14:21;99241.81;;;16.49;80.11
35694;BME280;21812;55.536;37.664;2023-08-24T00:16:47;99256.78;;;16.45;78.85
35694;BME280;21812;55.536;37.664;2023-08-24T00:19:13;99262.69;;;16.41;79.09
35694;BME280;21812;55.536;37.664;2023-08-24T00:21:38;99262.56;;;16.36;79.12
35694;BME280;21812;55.536;37.664;2023-08-24T00:24:04;99260.50;;;16.55;82.72
35694;BME280;21812;55.536;37.664;2023-08-24T00:26:30;99256.59;;;16.63;82.07
35694;BME280;21812;55.536;37.664;2023-08-24T00:28:56;99266.41;;;16.69;81.75
35694;BME280;21812;55.536;37.664;2023-08-24T00:31:21;99261.91;;;16.87;82.45
35694;BME280;21812;55.536;37.664;2023-08-24T00:33:48;99260.66;;;16.77;79.57
35694;BME280;21812;55.536;37.664;2023-08-24T00:36:16;99264.59;;;16.87;81.02
35694;BME280;21812;55.536;37.664;2023-08-24T00:38:44;99259.13;;;16.81;79.85
35694;BME280;21812;55.536;37.664;2023-08-24T00:41:10;99265.56;;;16.80;80.23
35694;BME280;21812;55.536;37.664;2023-08-24T00:43:36;99268.31;;;16.69;79.22
35694;BME280;21812;55.536;37.664;2023-08-24T00:46:03;99238.72;;;16.57;79.99
35694;BME280;21812;55.536;37.664;2023-08-24T00:48:30;99238.09;;;16.67;81.50
35694;BME280;21812;55.536;37.664;2023-08-24T00:50:59;99239.56;;;16.74;82.02
35694;BME280;21812;55.536;37.664;2023-08-24T00:53:26;99258.00;;;16.94;79.47
35694;BME280;21812;55.536;37.664;2023-08-24T00:55:53;99265.84;;;16.96;78.76
35694;BME280;21812;55.536;37.664;2023-08-24T00:58:20;99269.06;;;17.27;82.51
35694;BME280;21812;55.536;37.664;2023-08-24T01:00:47;99266.97;;;17.29;81.01
35694;BME280;21812;55.536;37.664;2023-08-24T01:03:14;99263.44;;;17.45;82.55
35694;BME280;21812;55.536;37.664;2023-08-24T01:05:44;99228.19;;;17.01;81.23
35694;BME280;21812;55.536;37.664;2023-08-24T01:08:10;99273.41;;;17.28;80.91
35694;BME280;21812;55.536;37.664;2023-08-24T01:13:30;99269.00;;;17.38;79.96
35694;BME280;21812;55.536;37.664;2023-08-24T01:16:13;99203.81;;;16.96;77.79
35694;BME280;21812;55.536;37.664;2023-08-24T01:18:42;99259.91;;;17.28;77.72
35694;BME280;21812;55.536;37.664;2023-08-24T01:21:08;99274.56;;;17.49;81.07
35694;BME280;21812;55.536;37.664;2023-08-24T01:28:36;99257.94;;;17.40;78.71
35694;BME280;21812;55.536;37.664;2023-08-24T01:31:04;99259.81;;;17.23;76.87
35694;BME280;21812;55.536;37.664;2023-08-24T01:33:30;99270.16;;;17.43;79.41
35694;BME280;21812;55.536;37.664;2023-08-24T01:35:57;99270.56;;;17.34;78.34
35694;BME280;21812;55.536;37.664;2023-08-24T01:38:23;99278.91;;;17.33;76.96
35694;BME280;21812;55.536;37.664;2023-08-24T01:43:49;99218.31;;;17.24;77.59
35694;BME280;21812;55.536;37.664;2023-08-24T01:46:19;99276.31;;;17.77;80.10
35694;BME280;21812;55.536;37.664;2023-08-24T01:48:47;99261.38;;;17.52;76.12
35694;BME280;21812;55.536;37.664;2023-08-24T01:51:13;99267.50;;;17.65;77.77
35694;BME280;21812;55.536;37.664;2023-08-24T01:53:40;99265.63;;;17.65;77.16
35694;BME280;21812;55.536;37.664;2023-08-24T01:56:14;99270.53;;;17.85;77.62
35694;BME280;21812;55.536;37.664;2023-08-24T01:58:41;99272.97;;;17.70;75.44
35694;BME280;21812;55.536;37.664;2023-08-24T02:01:08;99268.50;;;17.58;77.28
35694;BME280;21812;55.536;37.664;2023-08-24T02:03:34;99268.59;;;17.47;75.59
35694;BME280;21812;55.536;37.664;2023-08-24T02:06:00;99272.50;;;17.39;76.02
35694;BME280;21812;55.536;37.664;2023-08-24T02:08:26;99255.28;;;17.23;76.09
35694;BME280;21812;55.536;37.664;2023-08-24T02:10:51;99269.06;;;17.27;76.14
35694;BME280;21812;55.536;37.664;2023-08-24T02:13:17;99257.94;;;17.40;77.51
35694;BME280;21812;55.536;37.664;2023-08-24T02:15:43;99257.13;;;17.56;78.24
35694;BME280;21812;55.536;37.664;2023-08-24T02:18:09;99261.75;;;17.78;79.20
35694;BME280;21812;55.536;37.664;2023-08-24T02:20:36;99238.78;;;17.58;76.95
35694;BME280;21812;55.536;37.664;2023-08-24T02:23:04;99264.78;;;17.65;74.67
35694;BME280;21812;55.536;37.664;2023-08-24T02:25:30;99265.97;;;17.52;74.09
35694;BME280;21812;55.536;37.664;2023-08-24T02:27:55;99271.28;;;17.47;74.51
35694;BME280;21812;55.536;37.664;2023-08-24T02:30:21;99271.03;;;17.48;75.06
35694;BME280;21812;55.536;37.664;2023-08-24T02:32:47;99270.88;;;17.38;75.21
35694;BME280;21812;55.536;37.664;2023-08-24T02:35:15;99274.53;;;17.15;74.91
35694;BME280;21812;55.536;37.664;2023-08-24T02:37:42;99272.16;;;17.02;75.90
35694;BME280;21812;55.536;37.664;2023-08-24T02:40:08;99274.97;;;17.24;79.34
35694;BME280;21812;55.536;37.664;2023-08-24T02:42:35;99271.94;;;17.37;77.39
35694;BME280;21812;55.536;37.664;2023-08-24T02:45:01;99259.59;;;17.41;75.79
35694;BME280;21812;55.536;37.664;2023-08-24T02:47:32;99272.75;;;17.54;75.37
35694;BME280;21812;55.536;37.664;2023-08-24T02:49:58;99272.19;;;17.52;75.15
35694;BME280;21812;55.536;37.664;2023-08-24T02:52:24;99271.19;;;17.42;74.89
35694;BME280;21812;55.536;37.664;2023-08-24T02:54:50;99277.81;;;17.34;74.82
35694;BME280;21812;55.536;37.664;2023-08-24T02:57:16;99272.66;;;16.98;75.31
35694;BME280;21812;55.536;37.664;2023-08-24T02:59:42;99291.53;;;16.70;76.20
35694;BME280;21812;55.536;37.664;2023-08-24T03:02:10;99290.09;;;16.67;79.07
35694;BME280;21812;55.536;37.664;2023-08-24T03:04:36;99286.50;;;16.61;78.60
35694;BME280;21812;55.536;37.664;2023-08-24T03:07:02;99292.97;;;16.60;78.65
35694;BME280;21812;55.536;37.664;2023-08-24T03:09:29;99289.13;;;16.45;78.09
35694;BME280;21812;55.536;37.664;2023-08-24T03:11:55;99292.94;;;16.32;78.45
35694;BME280;21812;55.536;37.664;2023-08-24T03:14:21;99299.81;;;16.28;78.55
35694;BME280;21812;55.536;37.664;2023-08-24T03:16:47;99300.19;;;16.19;79.32
35694;BME280;21812;55.536;37.664;2023-08-24T03:19:12;99295.63;;;16.20;80.72
35694;BME280;21812;55.536;37.664;2023-08-24T03:21:40;99288.19;;;16.51;81.46
35694;BME280;21812;55.536;37.664;2023-08-24T03:24:06;99286.53;;;16.78;79.41
35694;BME280;21812;55.536;37.664;2023-08-24T03:26:31;99288.00;;;16.98;79.34
35694;BME280;21812;55.536;37.664;2023-08-24T03:28:57;99287.28;;;17.03;78.00
35694;BME280;21812;55.536;37.664;2023-08-24T03:31:23;99287.69;;;17.11;79.60
35694;BME280;21812;55.536;37.664;2023-08-24T03:33:49;99281.19;;;17.24;80.99
35694;BME280;21812;55.536;37.664;2023-08-24T03:36:15;99288.03;;;17.66;86.05
35694;BME280;21812;55.536;37.664;2023-08-24T03:38:44;99293.22;;;17.50;80.37
35694;BME280;21812;55.536;37.664;2023-08-24T03:41:13;99290.41;;;17.45;78.77
35694;BME280;21812;55.536;37.664;2023-08-24T03:43:38;99292.31;;;17.62;79.73
35694;BME280;21812;55.536;37.664;2023-08-24T03:46:04;99296.47;;;17.52;77.54
35694;BME280;21812;55.536;37.664;2023-08-24T03:48:32;99294.00;;;17.17;76.44
35694;BME280;21812;55.536;37.664;2023-08-24T03:50:58;99297.50;;;17.00;79.04
35694;BME280;21812;55.536;37.664;2023-08-24T03:53:24;99299.72;;;17.20;81.79
35694;BME280;21812;55.536;37.664;2023-08-24T03:55:52;99297.38;;;17.41;81.82
35694;BME280;21812;55.536;37.664;2023-08-24T03:58:20;99298.38;;;17.35;78.23
35694;BME280;21812;55.536;37.664;2023-08-24T04:00:46;99300.63;;;17.26;81.00
35694;BME280;21812;55.536;37.664;2023-08-24T04:03:13;99303.44;;;17.31;81.01
35694;BME280;21812;55.536;37.664;2023-08-24T04:05:39;99292.13;;;17.51;82.81
35694;BME280;21812;55.536;37.664;2023-08-24T04:08:05;99293.69;;;17.64;81.72
35694;BME280;21812;55.536;37.664;2023-08-24T04:10:31;99295.22;;;17.77;79.30
35694;BME280;21812;55.536;37.664;2023-08-24T04:12:58;99293.91;;;17.96;82.27
35694;BME280;21812;55.536;37.664;2023-08-24T04:15:24;99295.03;;;18.01;82.11
35694;BME280;21812;55.536;37.664;2023-08-24T04:17:50;99305.56;;;17.80;78.56
35694;BME280;21812;55.536;37.664;2023-08-24T04:20:16;99309.78;;;17.76;77.68
35694;BME280;21812;55.536;37.664;2023-08-24T04:22:42;99309.63;;;17.66;75.91
35694;BME280;21812;55.536;37.664;2023-08-24T04:25:08;99308.66;;;17.55;79.96
35694;BME280;21812;55.536;37.664;2023-08-24T04:27:35;99312.59;;;17.47;78.11
35694;BME280;21812;55.536;37.664;2023-08-24T04:30:01;99309.16;;;17.69;83.87
35694;BME280;21812;55.536;37.664;2023-08-24T04:32:33;99316.84;;;17.60;78.64
35694;BME280;21812;55.536;37.664;2023-08-24T04:34:58;99321.34;;;17.88;82.53
35694;BME280;21812;55.536;37.664;2023-08-24T04:37:24;99316.41;;;18.02;83.28
35694;BME280;21812;55.536;37.664;2023-08-24T04:39:50;99317.13;;;18.14;82.58
35694;BME280;21812;55.536;37.664;2023-08-24T04:42:15;99315.06;;;18.22;79.13
35694;BME280;21812;55.536;37.664;2023-08-24T04:44:41;99310.53;;;18.27;77.98
35694;BME280;21812;55.536;37.664;2023-08-24T04:47:07;99310.72;;;18.43;80.12
35694;BME280;21812;55.536;37.664;2023-08-24T04:49:33;99296.06;;;18.39;79.24
35694;BME280;21812;55.536;37.664;2023-08-24T04:51:58;99305.81;;;18.17;76.68
35694;BME280;21812;55.536;37.664;2023-08-24T04:54:24;99313.19;;;18.22;80.63
35694;BME280;21812;55.536;37.664;2023-08-24T04:56:50;99316.66;;;18.01;78.59
35694;BME280;21812;55.536;37.664;2023-08-24T04:59:15;99315.19;;;17.93;78.47
35694;BME280;21812;55.536;37.664;2023-08-24T05:01:41;99317.16;;;17.97;78.58
35694;BME280;21812;55.536;37.664;2023-08-24T05:04:07;99312.31;;;18.16;80.01
35694;BME280;21812;55.536;37.664;2023-08-24T05:06:33;99308.19;;;18.14;76.92
35694;BME280;21812;55.536;37.664;2023-08-24T05:08:59;99317.06;;;18.31;78.42
35694;BME280;21812;55.536;37.664;2023-08-24T05:11:26;99295.38;;;18.04;75.51
35694;BME280;21812;55.536;37.664;2023-08-24T05:13:55;99316.44;;;18.24;79.02
35694;BME280;21812;55.536;37.664;2023-08-24T05:16:21;99310.16;;;18.19;78.77
35694;BME280;21812;55.536;37.664;2023-08-24T05:18:47;99319.53;;;18.11;76.38
35694;BME280;21812;55.536;37.664;2023-08-24T05:21:13;99313.09;;;18.17;78.81
35694;BME280;21812;55.536;37.664;2023-08-24T05:23:39;99315.69;;;18.07;76.98
35694;BME280;21812;55.536;37.664;2023-08-24T05:26:05;99308.06;;;18.26;79.54
35694;BME280;21812;55.536;37.664;2023-08-24T05:28:31;99313.75;;;18.24;78.93
35694;BME280;21812;55.536;37.664;2023-08-24T05:30:58;99320.66;;;18.15;76.71
35694;BME280;21812;55.536;37.664;2023-08-24T05:33:26;99310.97;;;18.19;78.02
35694;BME280;21812;55.536;37.664;2023-08-24T05:35:52;99316.50;;;18.29;78.77
35694;BME280;21812;55.536;37.664;2023-08-24T05:38:18;99318.38;;;18.29;79.30
35694;BME280;21812;55.536;37.664;2023-08-24T05:40:48;99315.06;;;18.44;80.49
35694;BME280;21812;55.536;37.664;2023-08-24T05:43:14;99313.00;;;18.29;77.30
35694;BME280;21812;55.536;37.664;2023-08-24T05:45:40;99321.09;;;18.29;78.60
35694;BME280;21812;55.536;37.664;2023-08-24T05:48:07;99317.59;;;18.28;78.85
35694;BME280;21812;55.536;37.664;2023-08-24T05:50:33;99318.72;;;18.32;79.39
35694;BME280;21812;55.536;37.664;2023-08-24T05:53:00;99311.97;;;18.35;80.40
35694;BME280;21812;55.536;37.664;2023-08-24T05:55:26;99317.91;;;18.32;79.49
35694;BME280;21812;55.536;37.664;2023-08-24T05:57:52;99319.72;;;18.48;80.65
35694;BME280;21812;55.536;37.664;2023-08-24T06:00:17;99321.91;;;18.51;79.98
35694;BME280;21812;55.536;37.664;2023-08-24T06:02:44;99316.19;;;18.48;77.71
35694;BME280;21812;55.536;37.664;2023-08-24T06:05:09;99317.97;;;18.59;79.80
35694;BME280;21812;55.536;37.664;2023-08-24T06:07:36;99316.19;;;18.48;77.22
35694;BME280;21812;55.536;37.664;2023-08-24T06:10:03;99320.34;;;18.78;80.56
35694;BME280;21812;55.536;37.664;2023-08-24T06:12:33;99322.97;;;18.72;79.66
35694;BME280;21812;55.536;37.664;2023-08-24T06:14:58;99329.59;;;18.82;80.33
35694;BME280;21812;55.536;37.664;2023-08-24T06:17:30;99335.16;;;18.75;77.59
35694;BME280;21812;55.536;37.664;2023-08-24T06:19:56;99346.97;;;18.86;79.22
35694;BME280;21812;55.536;37.664;2023-08-24T06:22:22;99334.28;;;18.69;76.58
35694;BME280;21812;55.536;37.664;2023-08-24T06:24:47;99335.31;;;18.85;79.79
35694;BME280;21812;55.536;37.664;2023-08-24T06:27:13;99336.63;;;18.61;76.21
35694;BME280;21812;55.536;37.664;2023-08-24T06:29:42;99348.84;;;18.41;76.16
35694;BME280;21812;55.536;37.664;2023-08-24T06:32:08;99344.31;;;18.47;79.92
35694;BME280;21812;55.536;37.664;2023-08-24T06:34:33;99344.50;;;18.62;82.96
35694;BME280;21812;55.536;37.664;2023-08-24T06:37:01;99348.75;;;18.58;80.13
35694;BME280;21812;55.536;37.664;2023-08-24T06:39:27;99343.56;;;18.51;79.08
35694;BME280;21812;55.536;37.664;2023-08-24T06:41:52;99338.88;;;18.69;82.10
35694;BME280;21812;55.536;37.664;2023-08-24T06:44:24;99342.47;;;18.74;82.22
35694;BME280;21812;55.536;37.664;2023-08-24T06:46:49;99349.69;;;18.69;79.19
35694;BME280;21812;55.536;37.664;2023-08-24T06:49:15;99352.53;;;18.57;75.98
35694;BME280;21812;55.536;37.664;2023-08-24T06:51:41;99353.28;;;18.74;81.14
35694;BME280;21812;55.536;37.664;2023-08-24T06:54:06;99358.75;;;18.80;79.50
35694;BME280;21812;55.536;37.664;2023-08-24T06:56:32;99354.38;;;18.95;83.05
35694;BME280;21812;55.536;37.664;2023-08-24T06:58:58;99365.00;;;19.02;85.37
35694;BME280;21812;55.536;37.664;2023-08-24T07:01:23;99365.00;;;19.02;85.92
35694;BME280;21812;55.536;37.664;2023-08-24T07:03:51;99367.25;;;18.88;81.15
35694;BME280;21812;55.536;37.664;2023-08-24T07:06:17;99372.44;;;18.90;80.28
35694;BME280;21812;55.536;37.664;2023-08-24T07:08:43;99367.38;;;18.76;79.90
35694;BME280;21812;55.536;37.664;2023-08-24T07:11:08;99372.91;;;18.65;77.83
35694;BME280;21812;55.536;37.664;2023-08-24T07:13:34;99367.47;;;18.82;83.33
35694;BME280;21812;55.536;37.664;2023-08-24T07:16:00;99373.50;;;18.89;86.90
35694;BME280;21812;55.536;37.664;2023-08-24T07:18:26;99368.56;;;18.64;81.61
35694;BME280;21812;55.536;37.664;2023-08-24T07:20:52;99375.69;;;18.70;83.13
35694;BME280;21812;55.536;37.664;2023-08-24T07:23:18;99376.47;;;18.48;81.03
35694;BME280;21812;55.536;37.664;2023-08-24T07:25:43;99367.38;;;18.32;82.15
35694;BME280;21812;55.536;37.664;2023-08-24T07:28:09;99379.81;;;18.33;84.26
35694;BME280;21812;55.536;37.664;2023-08-24T07:30:35;99382.38;;;18.23;81.01
35694;BME280;21812;55.536;37.664;2023-08-24T07:33:02;99378.69;;;18.12;80.01
35694;BME280;21812;55.536;37.664;2023-08-24T07:35:29;99389.19;;;18.48;86.80
35694;BME280;21812;55.536;37.664;2023-08-24T07:37:55;99386.59;;;18.58;87.52
35694;BME280;21812;55.536;37.664;2023-08-24T07:40:22;99393.94;;;18.80;88.80
35694;BME280;21812;55.536;37.664;2023-08-24T07:42:52;99391.13;;;18.91;87.04
35694;BME280;21812;55.536;37.664;2023-08-24T07:45:22;99390.91;;;18.98;86.16
35694;BME280;21812;55.536;37.664;2023-08-24T07:47:49;99383.81;;;18.92;83.78
35694;BME280;21812;55.536;37.664;2023-08-24T07:50:14;99380.56;;;19.17;87.90
35694;BME280;21812;55.536;37.664;2023-08-24T07:52:40;99396.00;;;19.17;85.99
35694;BME280;21812;55.536;37.664;2023-08-24T07:55:07;99398.06;;;19.09;84.10
35694;BME280;21812;55.536;37.664;2023-08-24T07:57:34;99400.22;;;19.07;84.84
35694;BME280;21812;55.536;37.664;2023-08-24T08:00:00;99409.09;;;19.03;86.06
35694;BME280;21812;55.536;37.664;2023-08-24T08:02:26;99408.59;;;18.45;76.70
35694;BME280;21812;55.536;37.664;2023-08-24T08:04:58;99409.41;;;17.89;75.33
35694;BME280;21812;55.536;37.664;2023-08-24T08:07:25;99418.94;;;17.46;76.72
35694;BME280;21812;55.536;37.664;2023-08-24T08:09:51;99417.63;;;17.20;77.55
35694;BME280;21812;55.536;37.664;2023-08-24T08:12:17;99417.13;;;16.94;77.99
35694;BME280;21812;55.536;37.664;2023-08-24T08:14:42;99421.00;;;16.87;79.06
35694;BME280;21812;55.536;37.664;2023-08-24T08:17:08;99421.72;;;16.70;79.66
35694;BME280;21812;55.536;37.664;2023-08-24T08:19:34;99426.22;;;16.53;80.29
35694;BME280;21812;55.536;37.664;2023-08-24T08:22:01;99424.34;;;16.41;80.63
35694;BME280;21812;55.536;37.664;2023-08-24T08:24:27;99426.09;;;16.36;81.19
35694;BME280;21812;55.536;37.664;2023-08-24T08:26:53;99426.69;;;16.26;80.90
35694;BME280;21812;55.536;37.664;2023-08-24T08:29:19;99426.56;;;16.21;82.06
35694;BME280;21812;55.536;37.664;2023-08-24T08:31:45;99424.81;;;16.15;82.24
35694;BME280;21812;55.536;37.664;2023-08-24T08:34:11;99427.28;;;16.16;82.25
35694;BME280;21812;55.536;37.664;2023-08-24T08:36:38;99422.22;;;16.20;82.45
35694;BME280;21812;55.536;37.664;2023-08-24T08:39:03;99420.84;;;16.17;82.07
35694;BME280;21812;55.536;37.664;2023-08-24T08:41:37;99427.03;;;16.18;82.82
35694;BME280;21812;55.536;37.664;2023-08-24T08:44:05;99425.72;;;16.09;82.68
35694;BME280;21812;55.536;37.664;2023-08-24T08:46:32;99395.44;;;15.90;82.63
35694;BME280;21812;55.536;37.664;2023-08-24T08:48:59;99416.84;;;16.08;83.53
35694;BME280;21812;55.536;37.664;2023-08-24T08:51:25;99416.75;;;16.15;83.47
35694;BME280;21812;55.536;37.664;2023-08-24T08:53:52;99412.97;;;16.16;82.89
35694;BME280;21812;55.536;37.664;2023-08-24T08:56:19;99417.91;;;16.31;83.54
35694;BME280;21812;55.536;37.664;2023-08-24T08:58:45;99428.22;;;16.34;82.96
35694;BME280;21812;55.536;37.664;2023-08-24T09:01:12;99421.41;;;16.31;82.25
35694;BME280;21812;55.536;37.664;2023-08-24T09:03:39;99402.78;;;16.18;82.31
35694;BME280;21812;55.536;37.664;2023-08-24T09:06:05;99428.81;;;16.36;81.49
35694;BME280;21812;55.536;37.664;2023-08-24T09:08:31;99422.00;;;16.33;80.90
35694;BME280;21812;55.536;37.664;2023-08-24T09:11:00;99430.78;;;16.40;81.79
35694;BME280;21812;55.536;37.664;2023-08-24T09:13:26;99436.88;;;16.36;81.58
35694;BME280;21812;55.536;37.664;2023-08-24T09:15:52;99410.19;;;16.22;81.77
35694;BME280;21812;55.536;37.664;2023-08-24T09:18:20;99435.59;;;16.38;82.53
35694;BME280;21812;55.536;37.664;2023-08-24T09:20:47;99429.38;;;16.38;82.29
35694;BME280;21812;55.536;37.664;2023-08-24T09:23:19;99433.25;;;16.42;81.88
35694;BME280;21812;55.536;37.664;2023-08-24T09:25:49;99439.09;;;16.39;81.88
35694;BME280;21812;55.536;37.664;2023-08-24T09:28:22;99395.88;;;16.22;81.69
35694;BME280;21812;55.536;37.664;2023-08-24T09:30:49;99432.50;;;16.70;82.09
35694;BME280;21812;55.536;37.664;2023-08-24T09:33:17;99431.13;;;16.56;81.36
35694;BME280;21812;55.536;37.664;2023-08-24T09:35:43;99443.06;;;16.60;80.15
35694;BME280;21812;55.536;37.664;2023-08-24T09:38:19;99439.53;;;16.71;81.36
35694;BME280;21812;55.536;37.664;2023-08-24T09:40:46;99442.59;;;16.63;81.83
35694;BME280;21812;55.536;37.664;2023-08-24T09:43:17;99438.84;;;16.52;81.68
35694;BME280;21812;55.536;37.664;2023-08-24T09:45:55;99445.66;;;16.55;82.10
35694;BME280;21812;55.536;37.664;2023-08-24T09:48:22;99444.25;;;16.40;81.89
35694;BME280;21812;55.536;37.664;2023-08-24T09:50:51;99449.19;;;16.44;83.13
35694;BME280;21812;55.536;37.664;2023-08-24T09:53:19;99385.69;;;16.00;82.99
35694;BME280;21812;55.536;37.664;2023-08-24T09:55:58;99420.72;;;16.24;82.36
35694;BME280;21812;55.536;37.664;2023-08-24T09:58:25;99447.66;;;16.36;82.04
35694;BME280;21812;55.536;37.664;2023-08-24T10:00:51;99444.97;;;16.36;82.34
35694;BME280;21812;55.536;37.664;2023-08-24T10:03:21;99445.31;;;16.28;82.11
35694;BME280;21812;55.536;37.664;2023-08-24T10:05:56;99455.53;;;16.37;82.30
35694;BME280;21812;55.536;37.664;2023-08-24T10:08:31;99444.63;;;16.32;81.88
35694;BME280;21812;55.536;37.664;2023-08-24T10:11:00;99455.03;;;16.40;82.77
35694;BME280;21812;55.536;37.664;2023-08-24T10:13:43;99454.09;;;16.47;82.49
35694;BME280;21812;55.536;37.664;2023-08-24T10:16:14;99453.28;;;16.34;82.12
35694;BME280;21812;55.536;37.664;2023-08-24T10:18:41;99453.06;;;16.36;82.43
35694;BME280;21812;55.536;37.664;2023-08-24T10:21:08;99454.81;;;16.30;82.17
35694;BME280;21812;55.536;37.664;2023-08-24T10:23:34;99458.91;;;16.33;82.45
35694;BME280;21812;55.536;37.664;2023-08-24T10:26:08;99440.63;;;16.23;82.54
35694;BME280;21812;55.536;37.664;2023-08-24T10:28:36;99454.59;;;16.32;82.92
35694;BME280;21812;55.536;37.664;2023-08-24T10:31:02;99449.78;;;16.34;82.87
35694;BME280;21812;55.536;37.664;2023-08-24T10:33:29;99455.97;;;16.34;83.03
35694;BME280;21812;55.536;37.664;2023-08-24T10:35:56;99446.59;;;16.25;82.08
35694;BME280;21812;55.536;37.664;2023-08-24T10:38:23;99454.00;;;16.30;83.07
35694;BME280;21812;55.536;37.664;2023-08-24T10:40:50;99439.91;;;16.16;83.58
35694;BME280;21812;55.536;37.664;2023-08-24T10:43:16;99453.88;;;16.25;83.21
35694;BME280;21812;55.536;37.664;2023-08-24T10:45:58;99461.94;;;16.36;82.96
35694;BME280;21812;55.536;37.664;2023-08-24T10:48:56;99432.69;;;16.16;82.14
35694;BME280;21812;55.536;37.664;2023-08-24T10:51:18;99465.09;;;16.33;82.28
35694;BME280;21812;55.536;37.664;2023-08-24T10:54:01;99466.53;;;16.36;82.49
35694;BME280;21812;55.536;37.664;2023-08-24T10:59:12;99471.78;;;16.31;82.14
35694;BME280;21812;55.536;37.664;2023-08-24T11:01:43;99457.59;;;16.12;81.86
35694;BME280;21812;55.536;37.664;2023-08-24T11:04:10;99469.31;;;16.06;82.73
35694;BME280;21812;55.536;37.664;2023-08-24T11:06:51;99465.91;;;16.10;83.24
35694;BME280;21812;55.536;37.664;2023-08-24T11:09:18;99461.22;;;16.06;82.68
35694;BME280;21812;55.536;37.664;2023-08-24T11:12:03;99464.41;;;16.26;83.45
35694;BME280;21812;55.536;37.664;2023-08-24T11:14:31;99460.06;;;16.13;83.06
35694;BME280;21812;55.536;37.664;2023-08-24T11:16:59;99429.72;;;15.94;83.68
35694;BME280;21812;55.536;37.664;2023-08-24T11:19:25;99462.31;;;16.28;83.90
35694;BME280;21812;55.536;37.664;2023-08-24T11:21:51;99462.66;;;16.44;82.92
35694;BME280;21812;55.536;37.664;2023-08-24T11:24:18;99456.09;;;16.51;82.01
35694;BME280;21812;55.536;37.664;2023-08-24T11:26:46;99427.72;;;16.37;81.65
35694;BME280;21812;55.536;37.664;2023-08-24T11:29:12;99448.44;;;16.60;82.15
35694;BME280;21812;55.536;37.664;2023-08-24T11:31:39;99453.63;;;16.50;80.48
35694;BME280;21812;55.536;37.664;2023-08-24T11:34:05;99459.38;;;16.53;80.82
35694;BME280;21812;55.536;37.664;2023-08-24T11:37:02;99466.25;;;16.73;80.91
35694;BME280;21812;55.536;37.664;2023-08-24T11:39:27;99462.75;;;16.72;80.41
35694;BME280;21812;55.536;37.664;2023-08-24T11:41:59;99454.28;;;16.80;80.41
35694;BME280;21812;55.536;37.664;2023-08-24T11:44:26;99455.59;;;16.90;80.25
35694;BME280;21812;55.536;37.664;2023-08-24T11:46:51;99454.28;;;16.92;79.87
35694;BME280;21812;55.536;37.664;2023-08-24T11:49:17;99457.25;;;16.91;79.29
35694;BME280;21812;55.536;37.664;2023-08-24T11:51:43;99457.25;;;16.91;80.04
35694;BME280;21812;55.536;37.664;2023-08-24T11:54:09;99451.59;;;16.92;80.11
35694;BME280;21812;55.536;37.664;2023-08-24T11:56:43;99457.44;;;17.01;80.91
35694;BME280;21812;55.536;37.664;2023-08-24T11:59:12;99458.41;;;16.95;79.12
35694;BME280;21812;55.536;37.664;2023-08-24T12:01:40;99457.34;;;16.96;80.13
35694;BME280;21812;55.536;37.664;2023-08-24T12:04:06;99462.16;;;16.94;80.87
35694;BME280;21812;55.536;37.664;2023-08-24T12:06:32;99471.19;;;16.88;80.29
35694;BME280;21812;55.536;37.664;2023-08-24T12:08:58;99463.34;;;16.86;80.06
35694;BME280;21812;55.536;37.664;2023-08-24T12:11:24;99462.88;;;16.77;80.25
35694;BME280;21812;55.536;37.664;2023-08-24T12:13:55;99465.31;;;16.67;79.56
35694;BME280;21812;55.536;37.664;2023-08-24T12:16:22;99456.91;;;16.52;80.07
35694;BME280;21812;55.536;37.664;2023-08-24T12:18:51;99455.28;;;16.51;80.00
35694;BME280;21812;55.536;37.664;2023-08-24T12:21:18;99459.03;;;16.50;81.14
35694;BME280;21812;55.536;37.664;2023-08-24T12:23:54;99456.44;;;16.55;82.14
35694;BME280;21812;55.536;37.664;2023-08-24T12:26:20;99462.63;;;16.67;82.16
35694;BME280;21812;55.536;37.664;2023-08-24T12:28:50;99453.28;;;16.70;82.63
35694;BME280;21812;55.536;37.664;2023-08-24T12:31:17;99463.09;;;16.76;80.88
35694;BME280;21812;55.536;37.664;2023-08-24T12:33:42;99435.09;;;16.65;80.37
35694;BME280;21812;55.536;37.664;2023-08-24T12:36:09;99464.16;;;16.87;80.86
35694;BME280;21812;55.536;37.664;2023-08-24T12:38:35;99463.34;;;16.86;81.45
35694;BME280;21812;55.536;37.664;2023-08-24T12:41:01;99457.13;;;16.86;81.38
35694;BME280;21812;55.536;37.664;2023-08-24T12:43:27;99457.13;;;16.86;81.89
35694;BME280;21812;55.536;37.664;2023-08-24T12:45:53;99463.00;;;16.83;80.51
35694;BME280;21812;55.536;37.664;2023-08-24T12:48:18;99460.88;;;16.85;80.95
35694;BME280;21812;55.536;37.664;2023-08-24T12:50:44;99460.28;;;16.83;81.34
35694;BME280;21812;55.536;37.664;2023-08-24T12:53:11;99473.78;;;16.83;81.32
35694;BME280;21812;55.536;37.664;2023-08-24T12:55:39;99430.19;;;16.62;81.57
35694;BME280;21812;55.536;37.664;2023-08-24T12:58:05;99469.06;;;16.78;81.35
35694;BME280;21812;55.536;37.664;2023-08-24T13:00:31;99454.53;;;16.67;81.10
35694;BME280;21812;55.536;37.664;2023-08-24T13:02:57;99473.41;;;16.79;82.01
35694;BME280;21812;55.536;37.664;2023-08-24T13:05:23;99466.16;;;16.79;82.39